Haviland, Ohio
Current Conditions -  °F | °C
As of 6:53 AM on Tuesday 27 Jan 2015 (Local Time) from KDFI Reporting Station
Overcast Overcast  
Wind Chill: 16°   Ceiling: 12000
Heat Index: 16°   Visibility: 8mi
Dew Point: 11°   Wind: 0mph
Humidity: 81%   Direction: NA
Pressure: 30.03"   Gusts: NA
Location:  41.02°N, 84.58°W
Report Text: KDFI 271153Z AUTO 00000KT 8SM OVC120 M09/M12 A3003 RMK AO2 SLP182 T10891117 11089 21117 53019
Loading
Personal Weather Stations






























Interactive Weather Map New forecast layout! Learn more

10-Day Weather Forecast

Advertisements
Track Severe Weather on mobile